Flight Track Log - Related Links

Times and Time Zones

All times are in EDT time to prevent confusion due to time zone crossing. See the EGF2805 flight status page for this flight to view local times or setup timezone preferences in your user account.

Time Position Orientation Groundspeed Altitude Reporting Facility
EDT Latitude Longitude Course Direction KTS MPH feet Rate Location/Type
Tue 05:17:00 PM 41.7346 -87.2200 115° Southeast  Level Estimated
Tue 05:18:00 PM 41.6993 -87.1222 116° Southeast  Level Estimated
Tue 05:19:00 PM 41.6639 -87.0246 116° Southeast  Level Estimated
Tue 05:20:00 PM 41.6284 -86.9270 116° Southeast  Level Estimated
Tue 05:21:00 PM 41.5929 -86.8296 116° Southeast  Level Estimated
Tue 05:22:00 PM 41.5573 -86.7322 116° Southeast  Level Estimated
Tue 05:23:00 PM 41.5216 -86.6350 116° Southeast  Level Estimated
Tue 05:24:00 PM 41.4858 -86.5379 116° Southeast  Level Estimated
Tue 05:25:00 PM 41.4499 -86.4409 116° Southeast  Level Estimated
Tue 05:26:00 PM 41.4140 -86.3439 116° Southeast  Level Estimated
Tue 05:27:00 PM 41.3779 -86.2471 116° Southeast  Level Estimated
Tue 05:28:00 PM 41.3418 -86.1505 116° Southeast  Level Estimated
Tue 05:29:00 PM 41.3056 -86.0539 116° Southeast  Level Estimated
Tue 05:30:00 PM 41.2693 -85.9574 117° Southeast  Level Estimated
Tue 05:31:00 PM 41.2330 -85.8610 117° Southeast  Level Estimated
Tue 05:32:00 PM 41.1965 -85.7647 117° Southeast  Level Estimated
Tue 05:33:00 PM 41.1600 -85.6686 117° Southeast  Level Estimated
Tue 05:34:00 PM 41.1234 -85.5725 117° Southeast  Level Estimated
Tue 05:35:00 PM 41.0868 -85.4766 117° Southeast  Level Estimated
Tue 05:36:00 PM 41.0500 -85.3808 117° Southeast  Level Estimated
Tue 05:37:00 PM 41.0132 -85.2850 117° Southeast  Level Estimated
Tue 05:38:00 PM 40.9785 -85.1952 117° Southeast  Level Estimated
Tue 05:39:00 PM 40.9785 -85.1952 North  Level Estimated

Login

Don't have an account? Register now (free) for customized features, flight alerts, and more!